Asphalt Splendor — V7PQ7 — position and weather

sailwx.info

Track history (hours):
 
Tides and Currents Weather Stations Pressure Air Temp Water Temp Dewpoint Dewpoint Depression Visibility Wind Speed Wind Dir Waves Ship Positions

Asphalt Splendor

Last reported at 2018-Apr-18 11:55 UTC. Time now 2018-Apr-20 14:45 UTC.
Position N 36°03' W 005°14'.

Length 179 m; draft 6.8 m.

Type: Tanker. MMSI: 538006655.

Date/timePositionNaut miles runAvg speedWind from/ knotsBaromVisibWave heightAir tempDewpointWater temp
2018-Apr-18 11:55N 36°03' W 005°14'512.6
2018-Apr-18 11:30N 36°04' W 005°20'5 9.2
2018-Apr-18 11:01N 36°08' W 005°24'1 1.6
2018-Apr-18 10:29N 36°08' W 005°23'0 0.1
2018-Apr-18 09:59N 36°08' W 005°23'0 0.1
2018-Apr-18 09:29N 36°08' W 005°23'0 0.0
2018-Apr-18 08:59N 36°08' W 005°23'0 0.1
2018-Apr-18 08:23N 36°08' W 005°23'0 0.0
2018-Apr-18 07:47N 36°08' W 005°23'0 0.1
2018-Apr-18 07:20N 36°08' W 005°23'0 0.1
2018-Apr-18 06:53N 36°08' W 005°23'0 0.1
2018-Apr-18 06:29N 36°08' W 005°23'0 0.0
2018-Apr-18 05:59N 36°08' W 005°23'0 0.0
2018-Apr-18 05:29N 36°08' W 005°23'0 0.0
2018-Apr-18 04:59N 36°08' W 005°23'0 0.0
2018-Apr-18 04:29N 36°08' W 005°23'0 0.0
2018-Apr-18 03:58N 36°08' W 005°23'0 0.1
2018-Apr-18 03:29N 36°08' W 005°23'0 0.1
2018-Apr-18 02:58N 36°08' W 005°23'0 0.0
2018-Apr-18 02:28N 36°08' W 005°23'0 0.0
2018-Apr-18 01:52N 36°08' W 005°23'0 0.0
2018-Apr-18 01:28N 36°08' W 005°23'0 0.0
2018-Apr-18 00:46N 36°08' W 005°23'0 0.1
2018-Apr-18 00:19N 36°08' W 005°23'0 0.0
2018-Apr-17 23:58N 36°08' W 005°23'0 0.0
2018-Apr-17 23:29N 36°08' W 005°23'0 0.1
2018-Apr-17 22:58N 36°08' W 005°23'1 2.9
2018-Apr-17 22:29N 36°07' W 005°23'3 6.0
2018-Apr-17 22:00N 36°05' W 005°19'510.7
2018-Apr-17 21:30N 36°08' W 005°13'3 1.5
2018-Apr-17 19:43N 36°09' W 005°11'1 2.4
2018-Apr-17 19:25N 36°09' W 005°11'1 2.6
2018-Apr-17 18:52N 36°10' W 005°10'1 2.6
2018-Apr-17 18:30N 36°11' W 005°09'1 0.4
2018-Apr-17 16:12N 36°10' W 005°10'1 2.5
2018-Apr-17 16:00N 36°11' W 005°10'  
2018-Apr-14 03:03N 36°24' W 023°51'113.7
2018-Apr-14 03:00N 36°24' W 023°52'613.0
2018-Apr-14 02:30N 36°24' W 023°60'713.2
2018-Apr-14 02:00N 36°24' W 024°08'713.1
2018-Apr-14 01:30N 36°24' W 024°16'713.2
2018-Apr-14 01:00N 36°23' W 024°24'713.2
2018-Apr-14 00:31N 36°22' W 024°32'713.2
2018-Apr-14 00:00N 36°21' W 024°41'713.2
2018-Apr-13 23:30N 36°20' W 024°49'713.6
2018-Apr-13 23:00N 36°18' W 024°57'713.2
2018-Apr-13 22:30N 36°17' W 025°05'713.3
2018-Apr-13 22:00N 36°16' W 025°13'713.3
2018-Apr-13 21:31N 36°17' W 025°21'713.7
2018-Apr-13 21:00N 36°19' W 025°29'713.7
2018-Apr-13 20:30N 36°22' W 025°37'713.7
2018-Apr-13 20:00N 36°25' W 025°45'713.9
2018-Apr-13 19:30N 36°28' W 025°52'713.3
2018-Apr-13 19:01N 36°30' W 026°00'713.3
2018-Apr-13 18:30N 36°30' W 026°09'713.3
2018-Apr-13 18:00N 36°30' W 026°17'713.6
2018-Apr-13 17:30N 36°31' W 026°25'  
Track history (hours):
 
Tides and Currents Weather Stations Pressure Air Temp Water Temp Dewpoint Dewpoint Depression Visibility Wind Speed Wind Dir Waves Ship Positions

Asphalt Splendor

Last reported at 2018-Apr-18 11:55 UTC. Time now 2018-Apr-20 14:45 UTC.
Position N 36°03' W 005°14'.

Length 179 m; draft 6.8 m.

Type: Tanker. MMSI: 538006655.

Date/timePositionNaut miles runAvg speedWind from/ knotsBaromVisibWave heightAir tempDewpointWater temp
2018-Apr-18 11:55N 36°03' W 005°14'512.6
2018-Apr-18 11:30N 36°04' W 005°20'5 9.2
2018-Apr-18 11:01N 36°08' W 005°24'1 1.6
2018-Apr-18 10:29N 36°08' W 005°23'0 0.1
2018-Apr-18 09:59N 36°08' W 005°23'0 0.1
2018-Apr-18 09:29N 36°08' W 005°23'0 0.0
2018-Apr-18 08:59N 36°08' W 005°23'0 0.1
2018-Apr-18 08:23N 36°08' W 005°23'0 0.0
2018-Apr-18 07:47N 36°08' W 005°23'0 0.1
2018-Apr-18 07:20N 36°08' W 005°23'0 0.1
2018-Apr-18 06:53N 36°08' W 005°23'0 0.1
2018-Apr-18 06:29N 36°08' W 005°23'0 0.0
2018-Apr-18 05:59N 36°08' W 005°23'0 0.0
2018-Apr-18 05:29N 36°08' W 005°23'0 0.0
2018-Apr-18 04:59N 36°08' W 005°23'0 0.0
2018-Apr-18 04:29N 36°08' W 005°23'0 0.0
2018-Apr-18 03:58N 36°08' W 005°23'0 0.1
2018-Apr-18 03:29N 36°08' W 005°23'0 0.1
2018-Apr-18 02:58N 36°08' W 005°23'0 0.0
2018-Apr-18 02:28N 36°08' W 005°23'0 0.0
2018-Apr-18 01:52N 36°08' W 005°23'0 0.0
2018-Apr-18 01:28N 36°08' W 005°23'0 0.0
2018-Apr-18 00:46N 36°08' W 005°23'0 0.1
2018-Apr-18 00:19N 36°08' W 005°23'0 0.0
2018-Apr-17 23:58N 36°08' W 005°23'0 0.0
2018-Apr-17 23:29N 36°08' W 005°23'0 0.1
2018-Apr-17 22:58N 36°08' W 005°23'1 2.9
2018-Apr-17 22:29N 36°07' W 005°23'3 6.0
2018-Apr-17 22:00N 36°05' W 005°19'510.7
2018-Apr-17 21:30N 36°08' W 005°13'3 1.5
2018-Apr-17 19:43N 36°09' W 005°11'1 2.4
2018-Apr-17 19:25N 36°09' W 005°11'1 2.6
2018-Apr-17 18:52N 36°10' W 005°10'1 2.6
2018-Apr-17 18:30N 36°11' W 005°09'1 0.4
2018-Apr-17 16:12N 36°10' W 005°10'1 2.5
2018-Apr-17 16:00N 36°11' W 005°10'  
2018-Apr-14 03:03N 36°24' W 023°51'113.7
2018-Apr-14 03:00N 36°24' W 023°52'613.0
2018-Apr-14 02:30N 36°24' W 023°60'713.2
2018-Apr-14 02:00N 36°24' W 024°08'713.1
2018-Apr-14 01:30N 36°24' W 024°16'713.2
2018-Apr-14 01:00N 36°23' W 024°24'713.2
2018-Apr-14 00:31N 36°22' W 024°32'713.2
2018-Apr-14 00:00N 36°21' W 024°41'713.2
2018-Apr-13 23:30N 36°20' W 024°49'713.6
2018-Apr-13 23:00N 36°18' W 024°57'713.2
2018-Apr-13 22:30N 36°17' W 025°05'713.3
2018-Apr-13 22:00N 36°16' W 025°13'713.3
2018-Apr-13 21:31N 36°17' W 025°21'713.7
2018-Apr-13 21:00N 36°19' W 025°29'713.7
2018-Apr-13 20:30N 36°22' W 025°37'713.7
2018-Apr-13 20:00N 36°25' W 025°45'713.9
2018-Apr-13 19:30N 36°28' W 025°52'713.3
2018-Apr-13 19:01N 36°30' W 026°00'713.3
2018-Apr-13 18:30N 36°30' W 026°09'713.3
2018-Apr-13 18:00N 36°30' W 026°17'713.6
2018-Apr-13 17:30N 36°31' W 026°25'  

Dump ship's entire track history